Terminal Aerodrome Forecast
Issued by NWS

Home | Current Version | Previous Version | Text Only | Print | Product List | Glossary On
Versions: 1 2 3 4 5 6 7 8 9 10 11 12 13
685
FTUS46 KSGX 131126
TAFSNA
TAF
KSNA 131126Z 1312/1412 VRB05KT 6SM BR HZ VCFG FEW002
      TEMPO 1312/1315 1/4SM FG VV002
     FM131600 VRB04KT P6SM SKC
     FM131800 24007KT P6SM SKC
     FM140200 VRB04KT P6SM VCFG FEW005
      TEMPO 1406/1410 1/4SM FG VV001=

USA.gov is the U.S. government's official web portal to all federal, state and local government web resources and services.